Latest Weather Observations for Yarrawonga

IDV60801

Issued at 5:02 pm EST Friday 28 August 2015 (issued every 30 minutes, with the page automatically refreshed every 10 minutes)

About weather observations | Map of weather stations | Latest weather observations for VIC | Other Formats
Station Details ID: 081124 Name: YARRAWONGA Lat: -36.03 Lon: 146.03 Height: 128.9 m
Data from the previous 72 hours. | See also: Recent months at Yarrawonga
Date/Time
EST
Temp
°C
App
Temp
°C
Dew
Point
Rel
Hum
%
Delta-T
°C
Wind Press
QNH
hPa
Press
MSL
hPa
Rain
since 9 am
mm
Dir
 
Spd
km/h
Gust
km/h
Spd
kts
Gust
kts
28/05:00pm 13.1 8.8 8.0 71 2.5 WSW 20 28 11 15 1022.2 1022.5 0.0
28/04:30pm 13.4 9.7 8.0 70 2.7 WSW 17 22 9 12 1022.0 1022.2 0.0
28/04:00pm 13.3 9.8 7.1 66 3.0 SW 15 22 8 12 1021.9 1022.1 0.0
28/03:30pm 14.0 11.1 6.4 60 3.7 SW 11 19 6 10 1022.1 1022.3 0.0
28/03:00pm 13.6 10.6 6.2 61 3.5 SSW 11 15 6 8 1022.1 1022.3 0.0
28/02:30pm 14.1 11.2 6.5 60 3.7 WSW 11 19 6 10 1022.1 1022.3 0.0
28/02:00pm 13.8 9.4 6.4 61 3.6 WSW 19 28 10 15 1022.2 1022.5 0.0
28/01:30pm 13.7 10.5 6.8 63 3.4 WSW 13 20 7 11 1022.4 1022.7 0.0
28/01:00pm 13.3 9.1 5.7 60 3.6 SW 17 22 9 12 1022.7 1023.0 0.0
28/12:30pm 13.8 10.1 6.4 61 3.6 SW 15 22 8 12 1023.2 1023.4 0.0
28/12:00pm 13.8 9.5 7.1 64 3.3 SW 19 28 10 15 1023.6 1023.8 0.0
28/11:30am 13.4 9.0 7.2 66 3.0 SW 20 26 11 14 1023.8 1024.0 0.0
28/11:00am 13.0 8.6 7.2 68 2.8 SSW 20 28 11 15 1023.8 1024.0 0.0
28/10:30am 12.4 7.9 6.9 69 2.7 SSW 20 30 11 16 1023.7 1023.9 0.0
28/10:00am 11.8 7.2 6.5 70 2.5 SSW 20 30 11 16 1023.8 1024.0 0.0
28/09:30am 11.1 6.7 6.6 74 2.1 SSW 19 24 10 13 1023.6 1023.8 0.0
28/09:00am 10.3 6.2 6.3 76 1.9 SSW 17 20 9 11 1023.5 1023.7 3.6
28/08:30am 9.4 5.4 6.5 82 1.4 SSW 17 22 9 12 1023.4 1023.6 3.6
28/08:00am 8.4 4.3 6.2 86 1.0 SW 17 24 9 13 1023.2 1023.4 3.6
28/07:30am 7.1 2.8 5.4 89 0.8 SW 17 20 9 11 1022.7 1023.0 3.6
28/07:00am 6.5 1.8 5.1 91 0.6 SW 19 24 10 13 1022.5 1022.8 3.6
28/06:30am 6.8 2.2 5.4 91 0.6 WSW 19 24 10 13 1022.1 1022.3 3.6
28/06:00am 7.2 2.5 6.0 92 0.5 WSW 20 24 11 13 1021.7 1021.9 3.6
28/05:30am 7.5 2.9 6.6 94 0.4 WSW 20 24 11 13 1021.3 1021.5 3.6
28/05:00am 7.7 3.4 7.1 96 0.3 WSW 19 24 10 13 1021.2 1021.4 3.6
28/04:30am 8.1 3.7 7.3 95 0.4 SW 20 26 11 14 1020.8 1021.0 3.4
28/04:00am 8.3 4.0 7.7 96 0.3 WSW 20 28 11 15 1020.6 1020.8 3.4
28/03:30am 8.3 4.6 7.9 97 0.2 SW 17 22 9 12 1020.5 1020.7 3.4
28/03:00am 8.0 5.0 7.6 97 0.2 WSW 13 15 7 8 1020.4 1020.6 3.4
28/02:30am 8.8 5.2 8.5 98 0.1 WSW 17 20 9 11 1020.5 1020.7 3.4
28/02:00am 9.2 5.4 8.9 98 0.1 SW 19 24 10 13 1020.6 1020.8 3.4
28/01:30am 9.2 5.2 8.9 98 0.1 SW 20 26 11 14 1020.5 1020.7 3.4
28/01:00am 9.4 5.4 9.1 98 0.1 SW 20 26 11 14 1020.4 1020.6 3.4
28/12:30am 9.3 5.8 8.8 97 0.2 SW 17 22 9 12 1020.4 1020.6 3.4
28/12:00am 9.0 5.8 8.4 96 0.3 SW 15 19 8 10 1020.4 1020.6 3.4
 
Date/Time
EST
Temp
°C
App
Temp
°C
Dew
Point
Rel
Hum
%
Delta-T
°C
Wind Press
QNH
hPa
Press
MSL
hPa
Rain
since 9 am
mm
Dir
 
Spd
km/h
Gust
km/h
Spd
kts
Gust
kts
27/11:30pm 8.8 5.2 8.4 97 0.2 SW 17 22 9 12 1020.3 1020.5 3.4
27/11:00pm 8.9 5.0 8.5 97 0.2 SW 19 22 10 12 1020.2 1020.4 3.4
27/10:30pm 9.3 5.4 8.7 96 0.3 WSW 19 24 10 13 1020.3 1020.5 3.4
27/10:00pm 9.3 5.2 8.5 95 0.4 WSW 20 28 11 15 1020.3 1020.5 3.4
27/09:30pm 9.3 5.3 8.2 93 0.5 W 19 28 10 15 1020.4 1020.6 3.4
27/09:00pm 9.2 5.2 8.3 94 0.4 W 19 26 10 14 1020.5 1020.7 3.2
27/08:30pm 9.0 5.3 8.1 94 0.4 WSW 17 22 9 12 1020.4 1020.6 3.2
27/08:00pm 8.8 5.5 8.2 96 0.3 WSW 15 20 8 11 1020.6 1020.8 2.8
27/07:30pm 9.1 4.8 7.9 92 0.6 WSW 20 28 11 15 1020.5 1020.7 2.2
27/07:00pm 9.8 4.9 6.9 82 1.4 SW 22 32 12 17 1020.2 1020.4 2.0
27/06:30pm 9.7 6.4 8.1 90 0.8 SW 15 20 8 11 1019.7 1019.9 2.0
27/06:00pm 9.9 6.4 8.7 92 0.6 SW 17 22 9 12 1019.3 1019.5 2.0
27/05:30pm 10.3 6.5 9.1 92 0.6 SW 19 28 10 15 1019.0 1019.2 2.0
27/05:00pm 11.2 7.5 9.3 88 1.0 SW 19 28 10 15 1018.6 1018.8 2.0
27/04:30pm 12.1 9.2 9.7 85 1.2 WSW 15 20 8 11 1018.4 1018.6 2.0
27/04:00pm 12.3 8.5 9.1 81 1.6 SSW 19 30 10 16 1018.2 1018.4 2.0
27/03:30pm 12.5 9.1 10.6 88 1.0 SW 19 26 10 14 1018.6 1018.8 2.0
27/03:00pm 12.4 10.1 10.3 87 1.1 SW 13 17 7 9 1018.5 1018.7 2.0
27/02:30pm 11.3 10.2 10.7 96 0.3 SW 7 11 4 6 1018.6 1018.8 2.0
27/02:00pm 11.0 7.8 9.9 93 0.6 W 17 24 9 13 1019.1 1019.3 0.6
27/01:30pm 12.2 8.9 9.4 83 1.4 W 17 24 9 13 1018.9 1019.1 0.0
27/01:00pm 13.4 10.3 10.4 82 1.6 WSW 17 22 9 12 1019.0 1019.2 0.0
27/12:30pm 12.8 10.5 10.5 86 1.2 WSW 13 19 7 10 1019.3 1019.5 0.0
27/12:00pm 13.2 10.3 9.5 78 1.9 W 15 19 8 10 1019.6 1019.8 0.0
27/11:30am 13.4 11.7 10.0 80 1.8 WNW 9 15 5 8 1020.0 1020.2 0.0
27/11:00am 12.9 11.3 10.1 83 1.4 W 9 13 5 7 1020.4 1020.6 0.0
27/10:30am 12.7 13.0 10.8 88 1.0 CALM 0 2 0 1 1020.6 1020.8 0.0
27/10:00am 12.0 11.0 10.9 93 0.6 WSW 7 9 4 5 1020.7 1020.9 0.0
27/09:30am 11.4 10.4 11.1 98 0.2 WSW 7 11 4 6 1020.9 1021.1 0.0
27/09:00am 10.7 9.8 10.7 100 0.0 SW 6 9 3 5 1021.0 1021.2 8.8
27/08:30am 10.1 9.4 10.1 100 0.0 SW 4 6 2 3 1021.0 1021.2 8.8
27/08:00am 9.8 8.7 9.8 100 0.0 W 6 6 3 3 1021.0 1021.2 8.8
27/07:30am 9.6 8.4 9.6 100 0.0 SW 6 7 3 4 1020.7 1020.9 8.6
27/07:00am 9.5 8.3 9.5 100 0.0 S 6 7 3 4 1020.5 1020.7 8.6
27/06:30am 9.5 8.7 9.5 100 0.0 WSW 4 6 2 3 1020.2 1020.4 8.2
27/06:00am 9.6 8.2 9.6 100 0.0 W 7 11 4 6 1020.0 1020.2 8.2
27/05:30am 9.6 8.8 9.6 100 0.0 WSW 4 6 2 3 1019.8 1020.0 8.2
27/05:00am 9.5 8.7 9.5 100 0.0 W 4 6 2 3 1019.8 1020.0 8.2
27/04:30am 9.4 8.0 9.4 100 0.0 WSW 7 9 4 5 1019.7 1019.9 8.2
27/04:00am 9.6 9.1 9.5 99 0.0 SSW 2 6 1 3 1019.7 1019.9 8.2
27/03:30am 9.8 9.0 9.7 99 0.1 SSW 4 6 2 3 1020.0 1020.2 8.2
27/03:00am 9.8 8.6 9.7 99 0.1 SSE 6 7 3 4 1020.2 1020.4 8.0
27/02:30am 9.8 8.6 9.7 99 0.1 SSE 6 7 3 4 1020.5 1020.7 7.8
27/02:00am 9.9 8.6 9.8 99 0.1 S 7 9 4 5 1020.8 1021.0 6.8
27/01:30am 9.9 9.1 9.8 99 0.1 S 4 6 2 3 1021.1 1021.3 5.4
27/01:00am 9.9 8.5 9.6 98 0.2 S 7 9 4 5 1021.3 1021.5 4.6
27/12:30am 9.9 7.8 9.9 100 0.0 S 11 15 6 8 1021.6 1021.8 4.2
27/12:00am 10.0 8.9 9.9 99 0.1 S 6 6 3 3 1022.2 1022.5 3.6
 
Date/Time
EST
Temp
°C
App
Temp
°C
Dew
Point
Rel
Hum
%
Delta-T
°C
Wind Press
QNH
hPa
Press
MSL
hPa
Rain
since 9 am
mm
Dir
 
Spd
km/h
Gust
km/h
Spd
kts
Gust
kts
26/11:30pm 10.0 8.8 9.7 98 0.2 WSW 6 6 3 3 1022.5 1022.8 3.0
26/11:00pm 10.3 9.0 10.0 98 0.2 NNW 7 11 4 6 1022.7 1023.0 1.8
26/10:30pm 9.9 8.7 9.4 97 0.3 WNW 6 6 3 3 1022.8 1023.1 1.0
26/10:00pm 9.2 7.6 8.9 98 0.1 SW 7 9 4 5 1022.6 1022.9 1.0
26/09:30pm 9.4 7.8 8.8 96 0.3 SSW 7 11 4 6 1022.7 1023.0 1.0
26/09:00pm 9.8 8.5 9.3 97 0.2 WSW 6 7 3 4 1023.2 1023.4 1.0
26/08:30pm 9.4 7.8 8.9 97 0.2 SW 7 7 4 4 1023.1 1023.3 1.0
26/08:00pm 10.4 9.0 9.6 95 0.4 SW 7 7 4 4 1023.1 1023.3 1.0
26/07:30pm 10.9 9.8 10.6 98 0.2 SW 7 7 4 4 1023.2 1023.4 1.0
26/07:00pm 11.2 10.7 10.6 96 0.3 SW 4 6 2 3 1023.2 1023.4 0.8
26/06:30pm 11.7 11.1 10.3 91 0.7 WSW 4 6 2 3 1023.1 1023.3 0.6
26/06:00pm 12.0 10.7 10.1 88 1.0 S 7 9 4 5 1022.6 1022.9 0.6
26/05:30pm 12.7 11.8 10.8 88 1.0 SSW 6 9 3 5 1022.6 1022.9 0.6
26/05:00pm 13.3 11.3 10.3 82 1.6 SSW 11 17 6 9 1022.4 1022.7 0.6
26/04:30pm 13.6 11.7 10.4 81 1.7 SSW 11 15 6 8 1022.3 1022.6 0.6
26/04:00pm 13.6 11.7 10.6 82 1.6 S 11 15 6 8 1022.3 1022.6 0.6
26/03:30pm 13.9 12.4 10.7 81 1.7 SSW 9 13 5 7 1022.6 1022.9 0.6
26/03:00pm 13.6 11.5 9.6 77 2.1 SSW 11 13 6 7 1022.7 1023.0 0.4
26/02:30pm 13.7 11.9 9.6 76 2.1 S 9 13 5 7 1022.7 1023.0 0.4
26/02:00pm 13.8 12.5 9.3 74 2.3 S 6 7 3 4 1023.1 1023.3 0.2
26/01:30pm 13.5 12.0 9.2 75 2.2 ESE 7 11 4 6 1023.4 1023.6 0.2
26/01:00pm 13.5 11.5 8.6 72 2.5 SE 9 13 5 7 1023.5 1023.7 0.2
26/12:30pm 13.3 11.4 9.0 75 2.2 ESE 9 13 5 7 1023.8 1024.0 0.2
26/12:00pm 12.8 11.0 9.3 79 1.8 ESE 9 13 5 7 1024.4 1024.6 0.2
26/11:30am 12.6 11.2 9.6 82 1.5 SE 7 13 4 7 1024.8 1025.0 0.2
26/11:00am 12.2 11.0 9.4 83 1.4 SE 6 11 3 6 1025.1 1025.3 0.2
26/10:30am 11.8 10.1 8.5 80 1.6 SE 7 11 4 6 1025.4 1025.6 0.2
26/10:00am 11.2 10.0 8.1 81 1.5 ESE 4 7 2 4 1025.8 1026.0 0.2
26/09:30am 10.7 9.5 8.1 84 1.3 SE 4 6 2 3 1025.8 1026.0 0.0
26/09:00am 10.4 9.7 8.5 88 0.9 SSW 2 4 1 2 1025.6 1025.8 1.8
26/08:30am 9.4 7.8 8.2 92 0.6 W 6 7 3 4 1025.6 1025.8 1.8
26/08:00am 8.9 8.4 7.8 93 0.5 CALM 0 0 0 0 1025.3 1025.5 1.8
26/07:30am 8.5 7.6 7.6 94 0.4 NW 2 2 1 1 1025.0 1025.2 1.8
26/07:00am 8.1 7.1 7.5 96 0.3 SW 2 2 1 1 1024.6 1024.8 1.8
26/06:30am 7.9 6.1 7.3 96 0.3 SW 6 6 3 3 1024.2 1024.4 1.8
26/06:00am 7.8 6.0 7.2 96 0.3 SW 6 6 3 3 1024.0 1024.2 1.8
26/05:30am 7.3 6.5 6.7 96 0.3 CALM 0 0 0 0 1023.8 1024.0 1.8
26/05:00am 7.6 6.5 6.9 95 0.3 S 2 2 1 1 1023.8 1024.0 1.8
26/04:30am 8.0 6.6 7.1 94 0.4 SSW 4 6 2 3 1023.7 1023.9 1.8
26/04:00am 8.1 6.3 7.0 93 0.5 S 6 9 3 5 1023.6 1023.8 1.8
26/03:30am 8.2 6.2 7.0 92 0.6 SSE 7 9 4 5 1023.5 1023.7 1.8
26/03:00am 8.3 5.6 7.2 93 0.5 S 11 13 6 7 1023.5 1023.7 1.8
26/02:30am 7.8 6.4 7.2 96 0.3 SSW 4 4 2 2 1024.0 1024.2 1.8
26/02:00am 8.2 6.8 7.3 94 0.4 S 4 6 2 3 1024.1 1024.3 1.8
26/01:30am 8.3 6.7 7.9 97 0.2 S 6 6 3 3 1024.3 1024.5 1.8
26/01:00am 7.9 6.6 7.5 97 0.2 S 4 4 2 2 1024.5 1024.7 1.8
26/12:30am 8.3 7.3 7.5 95 0.4 S 2 4 1 2 1024.5 1024.7 1.8
26/12:00am 9.0 7.4 7.9 93 0.5 S 6 7 3 4 1024.5 1024.7 1.8
 
Date/Time
EST
Temp
°C
App
Temp
°C
Dew
Point
Rel
Hum
%
Delta-T
°C
Wind Press
QNH
hPa
Press
MSL
hPa
Rain
since 9 am
mm
Dir
 
Spd
km/h
Gust
km/h
Spd
kts
Gust
kts
25/11:30pm 9.2 8.8 8.4 95 0.4 CALM 0 2 0 1 1024.6 1024.8 1.8
25/11:00pm 9.3 8.2 8.5 95 0.4 SSE 4 6 2 3 1024.7 1024.9 1.8
25/10:30pm 9.4 7.8 8.8 96 0.3 SSE 7 9 4 5 1024.8 1025.0 1.8
25/10:00pm 9.5 7.9 8.9 96 0.3 SE 7 11 4 6 1024.9 1025.1 1.8
25/09:30pm 9.5 8.0 9.0 97 0.2 SE 7 11 4 6 1024.7 1024.9 1.8
25/09:00pm 9.5 8.1 9.0 97 0.2 SSE 6 9 3 5 1024.9 1025.1 1.8
25/08:30pm 9.6 8.2 9.0 96 0.3 SSE 6 7 3 4 1024.7 1024.9 1.6
25/08:00pm 9.8 8.4 9.0 95 0.4 SE 6 7 3 4 1024.6 1024.8 1.6
25/07:30pm 10.1 8.3 9.5 96 0.3 ESE 9 11 5 6 1024.4 1024.6 1.6
25/07:00pm 10.4 9.3 10.1 98 0.2 SE 6 9 3 5 1024.3 1024.5 1.6
25/06:30pm 10.7 10.5 10.4 98 0.2 ESE 2 6 1 3 1023.9 1024.1 1.6
25/06:00pm 11.0 10.9 10.7 98 0.2 NE 2 2 1 1 1023.5 1023.7 1.4
25/05:30pm 11.3 10.4 10.7 96 0.3 NE 6 6 3 3 1023.3 1023.5 1.4

Other Formats:

Comma delimited format used in spreadsheet applications
http://www.bom.gov.au/fwo/IDV60801/IDV60801.94862.axf

JavaScript Object Notation format (JSON) in row-major order
http://www.bom.gov.au/fwo/IDV60801/IDV60801.94862.json